PWSweather.com
Personal Weather Stations
Station Observations
WEATHERMOR
MorskoSI

MorskoSI

Lat: 46.075894, Lon: 13.634103

Elevation: 149

Station Type: WS2350

http://vp-morskovreme.com

High Low Average
Temperature 54.1°F12.3°F 39.2°F4.0°F 45.6°F7.6°F
Dew Point 38.1°F3.4°F 31.3°F-0.4°F 34.3°F1.3°F
Winds 11.0 mph N17.7 mph N Calm Calm 4.2 mph 6.8 mph
Wind Gusts 19.7 mph31.7 mph -- 9.2 mph14.8 mph
Humidity 78% 46% 65%
Pressure 30.35 in1027.80 in 30.09 in1019.00 in -
Precipitation 0.00 in0.00 in - -
Hour Temp Dew Point Humidity Winds Wind Gusts Pressure Precip Precip Rate Daily Precip Total
12:00 AM 45.3°F7.4°C 33.1°F0.6°C 62% 9.4 mph N15.1 kmh N 17.0 mph27.4 kmh 30.33 in1027.1 mb 0.00 in0.0 mm 0.00 in0.0 mm 0.00 in0.0 mm
12:10 AM 45.1°F7.3°C 32.9°F0.5°C 62% 11.0 mph N17.7 kmh N 19.7 mph31.7 kmh 30.33 in1027.1 mb 0.00 in0.0 mm 0.00 in0.0 mm 0.00 in0.0 mm
12:20 AM 45.0°F7.2°C 32.7°F0.4°C 62% 10.5 mph N16.9 kmh N 18.6 mph29.9 kmh 30.33 in1027.1 mb 0.00 in0.0 mm 0.00 in0.0 mm 0.00 in0.0 mm
12:30 AM 44.8°F7.1°C 32.5°F0.3°C 62% 9.2 mph N14.8 kmh N 17.0 mph27.4 kmh 30.34 in1027.4 mb 0.00 in0.0 mm 0.00 in0.0 mm 0.00 in0.0 mm
12:40 AM 44.4°F6.9°C 32.2°F0.1°C 62% 10.4 mph N16.7 kmh N 18.3 mph29.5 kmh 30.34 in1027.4 mb 0.00 in0.0 mm 0.00 in0.0 mm 0.00 in0.0 mm
12:50 AM 44.4°F6.9°C 32.2°F0.1°C 62% 10.8 mph N17.4 kmh N 18.8 mph30.3 kmh 30.34 in1027.4 mb 0.00 in0.0 mm 0.00 in0.0 mm 0.00 in0.0 mm
01:00 AM 44.4°F6.9°C 32.2°F0.1°C 62% 10.6 mph N17.1 kmh N 17.0 mph27.4 kmh 30.33 in1027.1 mb 0.00 in0.0 mm 0.00 in0.0 mm 0.00 in0.0 mm
01:10 AM 44.2°F6.8°C 32.0°F0.0°C 62% 8.6 mph NNE13.8 kmh NNE 16.8 mph27.0 kmh 30.34 in1027.4 mb 0.00 in0.0 mm 0.00 in0.0 mm 0.00 in0.0 mm
01:20 AM 44.2°F6.8°C 32.0°F0.0°C 62% 9.5 mph N15.3 kmh N 18.8 mph30.3 kmh 30.35 in1027.8 mb 0.00 in0.0 mm 0.00 in0.0 mm 0.00 in0.0 mm
01:30 AM 44.2°F6.8°C 32.0°F0.0°C 62% 9.4 mph N15.1 kmh N 18.1 mph29.1 kmh 30.35 in1027.8 mb 0.00 in0.0 mm 0.00 in0.0 mm 0.00 in0.0 mm
01:40 AM 44.2°F6.8°C 32.4°F0.2°C 63% 7.1 mph N11.4 kmh N 14.3 mph23.0 kmh 30.35 in1027.8 mb 0.00 in0.0 mm 0.00 in0.0 mm 0.00 in0.0 mm
01:50 AM 43.9°F6.6°C 32.1°F0.1°C 63% 8.3 mph N13.4 kmh N 15.2 mph24.5 kmh 30.35 in1027.8 mb 0.00 in0.0 mm 0.00 in0.0 mm 0.00 in0.0 mm
02:00 AM 43.7°F6.5°C 32.3°F0.2°C 64% 9.7 mph N15.6 kmh N 15.2 mph24.5 kmh 30.35 in1027.8 mb 0.00 in0.0 mm 0.00 in0.0 mm 0.00 in0.0 mm
02:10 AM 43.5°F6.4°C 32.5°F0.3°C 65% 8.4 mph NNE13.5 kmh NNE 13.0 mph20.9 kmh 30.34 in1027.4 mb 0.00 in0.0 mm 0.00 in0.0 mm 0.00 in0.0 mm
02:20 AM 43.3°F6.3°C 32.4°F0.2°C 65% 6.1 mph NNE9.8 kmh NNE 16.6 mph26.7 kmh 30.34 in1027.4 mb 0.00 in0.0 mm 0.00 in0.0 mm 0.00 in0.0 mm
02:30 AM 43.3°F6.3°C 32.4°F0.2°C 65% 8.6 mph NNE13.8 kmh NNE 17.4 mph28.0 kmh 30.33 in1027.1 mb 0.00 in0.0 mm 0.00 in0.0 mm 0.00 in0.0 mm
02:40 AM 43.3°F6.3°C 32.4°F0.2°C 65% 8.0 mph NNE12.9 kmh NNE 15.2 mph24.5 kmh 30.32 in1026.8 mb 0.00 in0.0 mm 0.00 in0.0 mm 0.00 in0.0 mm
02:50 AM 43.3°F6.3°C 32.4°F0.2°C 65% 7.2 mph NNE11.6 kmh NNE 16.8 mph27.0 kmh 30.33 in1027.1 mb 0.00 in0.0 mm 0.00 in0.0 mm 0.00 in0.0 mm
03:00 AM 43.3°F6.3°C 32.4°F0.2°C 65% 4.6 mph NE7.4 kmh NE 10.7 mph17.2 kmh 30.33 in1027.1 mb 0.00 in0.0 mm 0.00 in0.0 mm 0.00 in0.0 mm
03:10 AM 43.3°F6.3°C 32.7°F0.4°C 66% 5.5 mph NNE8.9 kmh NNE 12.5 mph20.1 kmh 30.33 in1027.1 mb 0.00 in0.0 mm 0.00 in0.0 mm 0.00 in0.0 mm
03:20 AM 43.3°F6.3°C 32.7°F0.4°C 66% 5.3 mph NE8.5 kmh NE 14.1 mph22.7 kmh 30.33 in1027.1 mb 0.00 in0.0 mm 0.00 in0.0 mm 0.00 in0.0 mm
03:30 AM 43.3°F6.3°C 32.7°F0.4°C 66% 4.0 mph NE6.4 kmh NE 10.7 mph17.2 kmh 30.32 in1026.8 mb 0.00 in0.0 mm 0.00 in0.0 mm 0.00 in0.0 mm
03:40 AM 43.3°F6.3°C 32.7°F0.4°C 66% 4.2 mph NE6.8 kmh NE 10.5 mph16.9 kmh 30.32 in1026.8 mb 0.00 in0.0 mm 0.00 in0.0 mm 0.00 in0.0 mm
03:50 AM 43.3°F6.3°C 32.7°F0.4°C 66% 6.9 mph NNE11.1 kmh NNE 13.0 mph20.9 kmh 30.31 in1026.4 mb 0.00 in0.0 mm 0.00 in0.0 mm 0.00 in0.0 mm
04:00 AM 43.3°F6.3°C 32.7°F0.4°C 66% 4.8 mph NNE7.7 kmh NNE 10.5 mph16.9 kmh 30.31 in1026.4 mb 0.00 in0.0 mm 0.00 in0.0 mm 0.00 in0.0 mm
04:10 AM 43.3°F6.3°C 33.1°F0.6°C 67% 7.6 mph NNE12.2 kmh NNE 14.5 mph23.3 kmh 30.31 in1026.4 mb 0.00 in0.0 mm 0.00 in0.0 mm 0.00 in0.0 mm
04:20 AM 43.3°F6.3°C 32.7°F0.4°C 66% 4.6 mph NNE7.4 kmh NNE 11.6 mph18.7 kmh 30.30 in1026.1 mb 0.00 in0.0 mm 0.00 in0.0 mm 0.00 in0.0 mm
04:30 AM 43.3°F6.3°C 33.1°F0.6°C 67% 4.3 mph NE6.9 kmh NE 10.5 mph16.9 kmh 30.30 in1026.1 mb 0.00 in0.0 mm 0.00 in0.0 mm 0.00 in0.0 mm
04:40 AM 43.5°F6.4°C 33.3°F0.7°C 67% 5.9 mph NNE9.5 kmh NNE 15.2 mph24.5 kmh 30.30 in1026.1 mb 0.00 in0.0 mm 0.00 in0.0 mm 0.00 in0.0 mm
04:50 AM 43.7°F6.5°C 33.1°F0.6°C 66% 5.7 mph NE9.2 kmh NE 14.3 mph23.0 kmh 30.30 in1026.1 mb 0.00 in0.0 mm 0.00 in0.0 mm 0.00 in0.0 mm
05:00 AM 43.5°F6.4°C 32.9°F0.5°C 66% 5.5 mph NNE8.9 kmh NNE 12.3 mph19.8 kmh 30.29 in1025.7 mb 0.00 in0.0 mm 0.00 in0.0 mm 0.00 in0.0 mm
05:10 AM 43.3°F6.3°C 33.1°F0.6°C 67% 6.3 mph NNE10.1 kmh NNE 13.0 mph20.9 kmh 30.29 in1025.7 mb 0.00 in0.0 mm 0.00 in0.0 mm 0.00 in0.0 mm
05:20 AM 42.8°F6.0°C 32.6°F0.3°C 67% 6.9 mph NNE11.1 kmh NNE 15.0 mph24.1 kmh 30.29 in1025.7 mb 0.00 in0.0 mm 0.00 in0.0 mm 0.00 in0.0 mm
05:30 AM 42.6°F5.9°C 32.8°F0.4°C 68% 4.1 mph NE6.6 kmh NE 13.4 mph21.6 kmh 30.29 in1025.7 mb 0.00 in0.0 mm 0.00 in0.0 mm 0.00 in0.0 mm
05:40 AM 42.3°F5.7°C 32.4°F0.2°C 68% 4.9 mph NE7.9 kmh NE 12.1 mph19.5 kmh 30.28 in1025.4 mb 0.00 in0.0 mm 0.00 in0.0 mm 0.00 in0.0 mm
05:50 AM 41.7°F5.4°C 31.9°F-0.1°C 68% 4.5 mph NE7.2 kmh NE 11.9 mph19.2 kmh 30.29 in1025.7 mb 0.00 in0.0 mm 0.00 in0.0 mm 0.00 in0.0 mm
06:00 AM 41.5°F5.3°C 32.1°F0.1°C 69% 4.4 mph NE7.1 kmh NE 10.5 mph16.9 kmh 30.28 in1025.4 mb 0.00 in0.0 mm 0.00 in0.0 mm 0.00 in0.0 mm
06:10 AM 41.2°F5.1°C 31.8°F-0.1°C 69% 4.0 mph NE6.4 kmh NE 8.3 mph13.4 kmh 30.28 in1025.4 mb 0.00 in0.0 mm 0.00 in0.0 mm 0.00 in0.0 mm
06:20 AM 41.2°F5.1°C 31.8°F-0.1°C 69% 3.6 mph NE5.8 kmh NE 8.1 mph13.0 kmh 30.27 in1025.1 mb 0.00 in0.0 mm 0.00 in0.0 mm 0.00 in0.0 mm
06:30 AM 40.8°F4.9°C 31.8°F-0.1°C 70% 4.5 mph NE7.2 kmh NE 10.3 mph16.6 kmh 30.27 in1025.1 mb 0.00 in0.0 mm 0.00 in0.0 mm 0.00 in0.0 mm
06:40 AM 40.6°F4.8°C 31.6°F-0.2°C 70% 5.1 mph NE8.2 kmh NE 11.2 mph18.0 kmh 30.27 in1025.1 mb 0.00 in0.0 mm 0.00 in0.0 mm 0.00 in0.0 mm
06:50 AM 40.6°F4.8°C 32.0°F0.0°C 71% 4.7 mph NE7.6 kmh NE 9.2 mph14.8 kmh 30.27 in1025.1 mb 0.00 in0.0 mm 0.00 in0.0 mm 0.00 in0.0 mm
07:00 AM 40.3°F4.6°C 31.6°F-0.2°C 71% 5.4 mph NNE8.7 kmh NNE 12.8 mph20.6 kmh 30.27 in1025.1 mb 0.00 in0.0 mm 0.00 in0.0 mm 0.00 in0.0 mm
07:10 AM 39.9°F4.4°C 31.6°F-0.2°C 71% 4.8 mph NE7.7 kmh NE 12.5 mph20.1 kmh 30.27 in1025.1 mb 0.00 in0.0 mm 0.00 in0.0 mm 0.00 in0.0 mm
07:20 AM 39.7°F4.3°C 31.4°F-0.3°C 72% 6.2 mph NE10.0 kmh NE 11.0 mph17.7 kmh 30.27 in1025.1 mb 0.00 in0.0 mm 0.00 in0.0 mm 0.00 in0.0 mm
07:30 AM 39.6°F4.2°C 31.6°F-0.2°C 73% 6.9 mph NE11.1 kmh NE 15.9 mph25.6 kmh 30.26 in1024.7 mb 0.00 in0.0 mm 0.00 in0.0 mm 0.00 in0.0 mm
07:40 AM 39.4°F4.1°C 31.4°F-0.3°C 73% 4.7 mph NE7.6 kmh NE 12.3 mph19.8 kmh 30.26 in1024.7 mb 0.00 in0.0 mm 0.00 in0.0 mm 0.00 in0.0 mm
07:50 AM 39.2°F4.0°C 31.3°F-0.4°C 73% 4.6 mph NE7.4 kmh NE 9.6 mph15.4 kmh 30.26 in1024.7 mb 0.00 in0.0 mm 0.00 in0.0 mm 0.00 in0.0 mm
08:00 AM 39.2°F4.0°C 31.6°F-0.2°C 74% 6.1 mph NNE9.8 kmh NNE 16.6 mph26.7 kmh 30.25 in1024.4 mb 0.00 in0.0 mm 0.00 in0.0 mm 0.00 in0.0 mm
08:10 AM 39.2°F4.0°C 31.6°F-0.2°C 74% 5.6 mph NNE9.0 kmh NNE 13.2 mph21.2 kmh 30.25 in1024.4 mb 0.00 in0.0 mm 0.00 in0.0 mm 0.00 in0.0 mm
08:20 AM 39.6°F4.2°C 32.0°F0.0°C 74% 5.8 mph NNE9.3 kmh NNE 12.3 mph19.8 kmh 30.25 in1024.4 mb 0.00 in0.0 mm 0.00 in0.0 mm 0.00 in0.0 mm
08:30 AM 39.7°F4.3°C 32.1°F0.1°C 74% 8.5 mph NNE13.7 kmh NNE 13.4 mph21.6 kmh 30.25 in1024.4 mb 0.00 in0.0 mm 0.00 in0.0 mm 0.00 in0.0 mm
08:40 AM 39.9°F4.4°C 32.3°F0.2°C 74% 7.4 mph NNE11.9 kmh NNE 14.8 mph23.8 kmh 30.25 in1024.4 mb 0.00 in0.0 mm 0.00 in0.0 mm 0.00 in0.0 mm
08:50 AM 40.3°F4.6°C 32.6°F0.3°C 74% 8.0 mph NNE12.9 kmh NNE 13.2 mph21.2 kmh 30.24 in1024.0 mb 0.00 in0.0 mm 0.00 in0.0 mm 0.00 in0.0 mm
09:00 AM 40.6°F4.8°C 33.0°F0.6°C 74% 7.9 mph NNE12.7 kmh NNE 15.7 mph25.3 kmh 30.24 in1024.0 mb 0.00 in0.0 mm 0.00 in0.0 mm 0.00 in0.0 mm
09:10 AM 41.2°F5.1°C 33.5°F0.8°C 74% 8.3 mph NNE13.4 kmh NNE 14.8 mph23.8 kmh 30.23 in1023.7 mb 0.00 in0.0 mm 0.00 in0.0 mm 0.00 in0.0 mm
09:20 AM 41.7°F5.4°C 33.7°F0.9°C 73% 7.2 mph NNE11.6 kmh NNE 13.4 mph21.6 kmh 30.24 in1024.0 mb 0.00 in0.0 mm 0.00 in0.0 mm 0.00 in0.0 mm
09:30 AM 42.4°F5.8°C 34.4°F1.3°C 73% 4.0 mph NE6.4 kmh NE 13.0 mph20.9 kmh 30.24 in1024.0 mb 0.00 in0.0 mm 0.00 in0.0 mm 0.00 in0.0 mm
09:40 AM 43.2°F6.2°C 34.7°F1.5°C 72% 5.9 mph NNE9.5 kmh NNE 11.2 mph18.0 kmh 30.23 in1023.7 mb 0.00 in0.0 mm 0.00 in0.0 mm 0.00 in0.0 mm
09:50 AM 43.9°F6.6°C 35.1°F1.7°C 71% 5.2 mph NNE8.4 kmh NNE 13.4 mph21.6 kmh 30.22 in1023.4 mb 0.00 in0.0 mm 0.00 in0.0 mm 0.00 in0.0 mm
10:00 AM 44.8°F7.1°C 35.6°F2.0°C 70% 5.1 mph NNE8.2 kmh NNE 9.8 mph15.8 kmh 30.22 in1023.4 mb 0.00 in0.0 mm 0.00 in0.0 mm 0.00 in0.0 mm
10:10 AM 45.3°F7.4°C 36.1°F2.3°C 70% 5.8 mph NNE9.3 kmh NNE 13.0 mph20.9 kmh 30.23 in1023.7 mb 0.00 in0.0 mm 0.00 in0.0 mm 0.00 in0.0 mm
10:20 AM 46.2°F7.9°C 36.6°F2.6°C 69% 5.7 mph N9.2 kmh N 13.4 mph21.6 kmh 30.22 in1023.4 mb 0.00 in0.0 mm 0.00 in0.0 mm 0.00 in0.0 mm
10:30 AM 46.9°F8.3°C 36.9°F2.7°C 68% 6.8 mph N10.9 kmh N 11.9 mph19.2 kmh 30.22 in1023.4 mb 0.00 in0.0 mm 0.00 in0.0 mm 0.00 in0.0 mm
10:40 AM 47.5°F8.6°C 37.1°F2.8°C 67% 6.4 mph N10.3 kmh N 13.2 mph21.2 kmh 30.21 in1023.0 mb 0.00 in0.0 mm 0.00 in0.0 mm 0.00 in0.0 mm
10:50 AM 48.0°F8.9°C 37.2°F2.9°C 66% 6.3 mph N10.1 kmh N 11.4 mph18.3 kmh 30.21 in1023.0 mb 0.00 in0.0 mm 0.00 in0.0 mm 0.00 in0.0 mm
11:00 AM 48.6°F9.2°C 37.3°F2.9°C 65% 6.7 mph N10.8 kmh N 13.9 mph22.4 kmh 30.21 in1023.0 mb 0.00 in0.0 mm 0.00 in0.0 mm 0.00 in0.0 mm
11:10 AM 48.9°F9.4°C 37.3°F2.9°C 64% 5.4 mph N8.7 kmh N 11.6 mph18.7 kmh 30.21 in1023.0 mb 0.00 in0.0 mm 0.00 in0.0 mm 0.00 in0.0 mm
11:20 AM 49.6°F9.8°C 38.0°F3.3°C 64% 5.1 mph N8.2 kmh N 9.6 mph15.4 kmh 30.20 in1022.7 mb 0.00 in0.0 mm 0.00 in0.0 mm 0.00 in0.0 mm
11:30 AM 50.2°F10.1°C 38.1°F3.4°C 63% 3.9 mph N6.3 kmh N 10.5 mph16.9 kmh 30.20 in1022.7 mb 0.00 in0.0 mm 0.00 in0.0 mm 0.00 in0.0 mm
11:40 AM 50.7°F10.4°C 37.8°F3.2°C 61% 5.5 mph N8.9 kmh N 10.3 mph16.6 kmh 30.19 in1022.4 mb 0.00 in0.0 mm 0.00 in0.0 mm 0.00 in0.0 mm
11:50 AM 51.4°F10.8°C 36.7°F2.6°C 57% 4.9 mph N7.9 kmh N 8.7 mph14.0 kmh 30.19 in1022.4 mb 0.00 in0.0 mm 0.00 in0.0 mm 0.00 in0.0 mm
12:00 PM 52.2°F11.2°C 36.9°F2.7°C 56% 3.4 mph N5.5 kmh N 7.4 mph11.9 kmh 30.18 in1022.0 mb 0.00 in0.0 mm 0.00 in0.0 mm 0.00 in0.0 mm
12:10 PM 52.7°F11.5°C 36.5°F2.5°C 54% 3.8 mph N6.1 kmh N 7.4 mph11.9 kmh 30.18 in1022.0 mb 0.00 in0.0 mm 0.00 in0.0 mm 0.00 in0.0 mm
12:20 PM 52.7°F11.5°C 35.1°F1.7°C 51% 2.9 mph N4.7 kmh N 7.8 mph12.6 kmh 30.18 in1022.0 mb 0.00 in0.0 mm 0.00 in0.0 mm 0.00 in0.0 mm
12:30 PM 53.4°F11.9°C 36.2°F2.3°C 52% 1.9 mph SSW3.1 kmh SSW 5.4 mph8.7 kmh 30.17 in1021.7 mb 0.00 in0.0 mm 0.00 in0.0 mm 0.00 in0.0 mm
12:40 PM 54.0°F12.2°C 35.7°F2.1°C 50% 3.4 mph SW5.5 kmh SW 9.6 mph15.4 kmh 30.16 in1021.3 mb 0.00 in0.0 mm 0.00 in0.0 mm 0.00 in0.0 mm
12:50 PM 54.1°F12.3°C 35.9°F2.2°C 50% 2.4 mph SSW3.9 kmh SSW 8.9 mph14.3 kmh 30.16 in1021.3 mb 0.00 in0.0 mm 0.00 in0.0 mm 0.00 in0.0 mm
01:00 PM 54.0°F12.2°C 36.2°F2.3°C 51% 2.4 mph SW3.9 kmh SW 5.8 mph9.3 kmh 30.15 in1021.0 mb 0.00 in0.0 mm 0.00 in0.0 mm 0.00 in0.0 mm
01:10 PM 53.8°F12.1°C 35.1°F1.7°C 49% 3.2 mph SSW5.1 kmh SSW 7.6 mph12.2 kmh 30.15 in1021.0 mb 0.00 in0.0 mm 0.00 in0.0 mm 0.00 in0.0 mm
01:20 PM 53.8°F12.1°C 35.1°F1.7°C 49% 4.4 mph SSW7.1 kmh SSW 9.4 mph15.1 kmh 30.14 in1020.7 mb 0.00 in0.0 mm 0.00 in0.0 mm 0.00 in0.0 mm
01:30 PM 53.4°F11.9°C 34.7°F1.5°C 49% 4.8 mph SW7.7 kmh SW 9.6 mph15.4 kmh 30.14 in1020.7 mb 0.00 in0.0 mm 0.00 in0.0 mm 0.00 in0.0 mm
01:40 PM 53.4°F11.9°C 34.2°F1.2°C 48% 3.5 mph SW5.6 kmh SW 9.2 mph14.8 kmh 30.14 in1020.7 mb 0.00 in0.0 mm 0.00 in0.0 mm 0.00 in0.0 mm
01:50 PM 53.4°F11.9°C 33.7°F0.9°C 47% 3.8 mph SSW6.1 kmh SSW 9.4 mph15.1 kmh 30.13 in1020.3 mb 0.00 in0.0 mm 0.00 in0.0 mm 0.00 in0.0 mm
02:00 PM 53.6°F12.0°C 33.8°F1.0°C 47% 5.7 mph SW9.2 kmh SW 11.4 mph18.3 kmh 30.13 in1020.3 mb 0.00 in0.0 mm 0.00 in0.0 mm 0.00 in0.0 mm
02:10 PM 54.0°F12.2°C 33.6°F0.9°C 46% 5.0 mph SW8.0 kmh SW 10.3 mph16.6 kmh 30.13 in1020.3 mb 0.00 in0.0 mm 0.00 in0.0 mm 0.00 in0.0 mm
02:20 PM 54.0°F12.2°C 33.6°F0.9°C 46% 5.5 mph SSW8.9 kmh SSW 14.3 mph23.0 kmh 30.12 in1020.0 mb 0.00 in0.0 mm 0.00 in0.0 mm 0.00 in0.0 mm
02:30 PM 53.2°F11.8°C 33.0°F0.6°C 46% 5.2 mph SW8.4 kmh SW 12.8 mph20.6 kmh 30.12 in1020.0 mb 0.00 in0.0 mm 0.00 in0.0 mm 0.00 in0.0 mm
02:40 PM 52.7°F11.5°C 33.5°F0.8°C 48% 4.9 mph SSW7.9 kmh SSW 10.7 mph17.2 kmh 30.12 in1020.0 mb 0.00 in0.0 mm 0.00 in0.0 mm 0.00 in0.0 mm
02:50 PM 52.2°F11.2°C 34.1°F1.2°C 50% 6.2 mph SSW10.0 kmh SSW 11.9 mph19.2 kmh 30.13 in1020.3 mb 0.00 in0.0 mm 0.00 in0.0 mm 0.00 in0.0 mm
03:00 PM 52.0°F11.1°C 34.9°F1.6°C 52% 4.8 mph SW7.7 kmh SW 9.8 mph15.8 kmh 30.12 in1020.0 mb 0.00 in0.0 mm 0.00 in0.0 mm 0.00 in0.0 mm
03:10 PM 51.4°F10.8°C 34.4°F1.3°C 52% 4.4 mph SW7.1 kmh SW 10.7 mph17.2 kmh 30.13 in1020.3 mb 0.00 in0.0 mm 0.00 in0.0 mm 0.00 in0.0 mm
03:20 PM 50.9°F10.5°C 34.4°F1.3°C 53% 5.2 mph SW8.4 kmh SW 10.7 mph17.2 kmh 30.12 in1020.0 mb 0.00 in0.0 mm 0.00 in0.0 mm 0.00 in0.0 mm
03:30 PM 50.5°F10.3°C 34.0°F1.1°C 53% 5.3 mph SW8.5 kmh SW 13.0 mph20.9 kmh 30.13 in1020.3 mb 0.00 in0.0 mm 0.00 in0.0 mm 0.00 in0.0 mm
03:40 PM 49.8°F9.9°C 34.3°F1.3°C 55% 5.9 mph SW9.5 kmh SW 10.5 mph16.9 kmh 30.12 in1020.0 mb 0.00 in0.0 mm 0.00 in0.0 mm 0.00 in0.0 mm
03:50 PM 49.5°F9.7°C 34.0°F1.1°C 55% 2.5 mph SSW4.0 kmh SSW 7.2 mph11.6 kmh 30.12 in1020.0 mb 0.00 in0.0 mm 0.00 in0.0 mm 0.00 in0.0 mm
04:00 PM 49.3°F9.6°C 34.2°F1.2°C 56% 2.1 mph S3.4 kmh S 7.6 mph12.2 kmh 30.12 in1020.0 mb 0.00 in0.0 mm 0.00 in0.0 mm 0.00 in0.0 mm
04:10 PM 48.9°F9.4°C 34.3°F1.3°C 57% 2.2 mph S3.5 kmh S 5.8 mph9.3 kmh 30.12 in1020.0 mb 0.00 in0.0 mm 0.00 in0.0 mm 0.00 in0.0 mm
04:20 PM 48.9°F9.4°C 34.3°F1.3°C 57% 2.0 mph SSW3.2 kmh SSW 8.1 mph13.0 kmh 30.12 in1020.0 mb 0.00 in0.0 mm 0.00 in0.0 mm 0.00 in0.0 mm
04:30 PM 48.7°F9.3°C 34.6°F1.4°C 58% 2.5 mph SSW4.0 kmh SSW 9.4 mph15.1 kmh 30.12 in1020.0 mb 0.00 in0.0 mm 0.00 in0.0 mm 0.00 in0.0 mm
04:40 PM 48.6°F9.2°C 35.3°F1.8°C 60% 3.9 mph SW6.3 kmh SW 10.3 mph16.6 kmh 30.12 in1020.0 mb 0.00 in0.0 mm 0.00 in0.0 mm 0.00 in0.0 mm
04:50 PM 48.4°F9.1°C 35.5°F1.9°C 61% 2.8 mph SSW4.5 kmh SSW 9.6 mph15.4 kmh 30.11 in1019.6 mb 0.00 in0.0 mm 0.00 in0.0 mm 0.00 in0.0 mm
05:00 PM 48.4°F9.1°C 36.0°F2.2°C 62% 2.8 mph S4.5 kmh S 8.3 mph13.4 kmh 30.12 in1020.0 mb 0.00 in0.0 mm 0.00 in0.0 mm 0.00 in0.0 mm
05:10 PM 48.0°F8.9°C 35.6°F2.0°C 62% 2.5 mph S4.0 kmh S 6.0 mph9.7 kmh 30.11 in1019.6 mb 0.00 in0.0 mm 0.00 in0.0 mm 0.00 in0.0 mm
05:20 PM 48.0°F8.9°C 35.6°F2.0°C 62% 1.4 mph S2.3 kmh S 5.8 mph9.3 kmh 30.11 in1019.6 mb 0.00 in0.0 mm 0.00 in0.0 mm 0.00 in0.0 mm
05:30 PM 47.8°F8.8°C 35.8°F2.1°C 63% 1.5 mph SSW2.4 kmh SSW 4.7 mph7.6 kmh 30.11 in1019.6 mb 0.00 in0.0 mm 0.00 in0.0 mm 0.00 in0.0 mm
05:40 PM 47.8°F8.8°C 36.2°F2.3°C 64% 1.7 mph S2.7 kmh S 4.9 mph7.9 kmh 30.11 in1019.6 mb 0.00 in0.0 mm 0.00 in0.0 mm 0.00 in0.0 mm
05:50 PM 47.5°F8.6°C 35.9°F2.2°C 64% 1.6 mph S2.6 kmh S 5.1 mph8.2 kmh 30.11 in1019.6 mb 0.00 in0.0 mm 0.00 in0.0 mm 0.00 in0.0 mm
06:00 PM 47.3°F8.5°C 36.1°F2.3°C 65% 1.6 mph S2.6 kmh S 4.5 mph7.2 kmh 30.11 in1019.6 mb 0.00 in0.0 mm 0.00 in0.0 mm 0.00 in0.0 mm
06:10 PM 47.1°F8.4°C 36.0°F2.2°C 65% 1.5 mph S2.4 kmh S 5.6 mph9.0 kmh 30.11 in1019.6 mb 0.00 in0.0 mm 0.00 in0.0 mm 0.00 in0.0 mm
06:20 PM 46.9°F8.3°C 36.2°F2.3°C 66% 2.2 mph S3.5 kmh S 8.5 mph13.7 kmh 30.11 in1019.6 mb 0.00 in0.0 mm 0.00 in0.0 mm 0.00 in0.0 mm
06:30 PM 46.8°F8.2°C 36.4°F2.4°C 67% 0.9 mph S1.4 kmh S 3.6 mph5.8 kmh 30.11 in1019.6 mb 0.00 in0.0 mm 0.00 in0.0 mm 0.00 in0.0 mm
06:40 PM 46.6°F8.1°C 36.2°F2.3°C 67% 0.9 mph SSE1.4 kmh SSE 3.1 mph5.0 kmh 30.11 in1019.6 mb 0.00 in0.0 mm 0.00 in0.0 mm 0.00 in0.0 mm
06:50 PM 46.2°F7.9°C 35.9°F2.2°C 67% 0.5 mph S0.8 kmh S 4.0 mph6.4 kmh 30.11 in1019.6 mb 0.00 in0.0 mm 0.00 in0.0 mm 0.00 in0.0 mm
07:00 PM 46.2°F7.9°C 36.2°F2.3°C 68% 0.1 mph SE0.2 kmh SE 1.3 mph2.1 kmh 30.11 in1019.6 mb 0.00 in0.0 mm 0.00 in0.0 mm 0.00 in0.0 mm
07:10 PM 45.9°F7.7°C 35.9°F2.2°C 68% 0.2 mph SE0.3 kmh SE 1.6 mph2.6 kmh 30.11 in1019.6 mb 0.00 in0.0 mm 0.00 in0.0 mm 0.00 in0.0 mm
07:20 PM 45.5°F7.5°C 35.5°F1.9°C 68% Calm Calm -- 30.11 in1019.6 mb 0.00 in0.0 mm 0.00 in0.0 mm 0.00 in0.0 mm
07:30 PM 45.3°F7.4°C 35.7°F2.1°C 69% 0.2 mph SE0.3 kmh SE 1.1 mph1.8 kmh 30.11 in1019.6 mb 0.00 in0.0 mm 0.00 in0.0 mm 0.00 in0.0 mm
07:40 PM 45.0°F7.2°C 35.4°F1.9°C 69% 0.4 mph SE0.6 kmh SE 1.3 mph2.1 kmh 30.11 in1019.6 mb 0.00 in0.0 mm 0.00 in0.0 mm 0.00 in0.0 mm
07:50 PM 44.8°F7.1°C 35.6°F2.0°C 70% 0.3 mph SE0.5 kmh SE 1.1 mph1.8 kmh 30.11 in1019.6 mb 0.00 in0.0 mm 0.00 in0.0 mm 0.00 in0.0 mm
08:00 PM 44.4°F6.9°C 35.2°F1.8°C 70% Calm Calm 0.7 mph1.1 kmh 30.10 in1019.3 mb 0.00 in0.0 mm 0.00 in0.0 mm 0.00 in0.0 mm
08:10 PM 44.4°F6.9°C 35.6°F2.0°C 71% Calm Calm 0.7 mph1.1 kmh 30.10 in1019.3 mb 0.00 in0.0 mm 0.00 in0.0 mm 0.00 in0.0 mm
08:20 PM 44.2°F6.8°C 35.4°F1.9°C 71% 0.4 mph SE0.6 kmh SE 1.3 mph2.1 kmh 30.10 in1019.3 mb 0.00 in0.0 mm 0.00 in0.0 mm 0.00 in0.0 mm
08:30 PM 44.1°F6.7°C 35.3°F1.8°C 71% Calm Calm 0.9 mph1.4 kmh 30.10 in1019.3 mb 0.00 in0.0 mm 0.00 in0.0 mm 0.00 in0.0 mm
08:40 PM 43.9°F6.6°C 35.4°F1.9°C 72% Calm Calm -- 30.10 in1019.3 mb 0.00 in0.0 mm 0.00 in0.0 mm 0.00 in0.0 mm
08:50 PM 43.9°F6.6°C 35.4°F1.9°C 72% Calm Calm -- 30.09 in1019.0 mb 0.00 in0.0 mm 0.00 in0.0 mm 0.00 in0.0 mm
09:00 PM 43.7°F6.5°C 35.3°F1.8°C 72% Calm Calm 0.7 mph1.1 kmh 30.09 in1019.0 mb 0.00 in0.0 mm 0.00 in0.0 mm 0.00 in0.0 mm
09:10 PM 43.7°F6.5°C 35.6°F2.0°C 73% Calm Calm -- 30.09 in1019.0 mb 0.00 in0.0 mm 0.00 in0.0 mm 0.00 in0.0 mm
09:20 PM 43.7°F6.5°C 35.6°F2.0°C 73% Calm Calm -- 30.09 in1019.0 mb 0.00 in0.0 mm 0.00 in0.0 mm 0.00 in0.0 mm
09:30 PM 43.5°F6.4°C 35.4°F1.9°C 73% Calm Calm -- 30.09 in1019.0 mb 0.00 in0.0 mm 0.00 in0.0 mm 0.00 in0.0 mm
09:40 PM 43.5°F6.4°C 35.4°F1.9°C 73% Calm Calm -- 30.09 in1019.0 mb 0.00 in0.0 mm 0.00 in0.0 mm 0.00 in0.0 mm
09:50 PM 43.5°F6.4°C 35.4°F1.9°C 73% Calm Calm -- 30.09 in1019.0 mb 0.00 in0.0 mm 0.00 in0.0 mm 0.00 in0.0 mm
10:00 PM 43.3°F6.3°C 35.6°F2.0°C 74% Calm Calm -- 30.09 in1019.0 mb 0.00 in0.0 mm 0.00 in0.0 mm 0.00 in0.0 mm
10:10 PM 43.3°F6.3°C 35.9°F2.2°C 75% Calm Calm -- 30.09 in1019.0 mb 0.00 in0.0 mm 0.00 in0.0 mm 0.00 in0.0 mm
10:20 PM 43.3°F6.3°C 35.9°F2.2°C 75% Calm Calm 0.9 mph1.4 kmh 30.09 in1019.0 mb 0.00 in0.0 mm 0.00 in0.0 mm 0.00 in0.0 mm
10:30 PM 43.2°F6.2°C 36.1°F2.3°C 76% Calm Calm -- 30.09 in1019.0 mb 0.00 in0.0 mm 0.00 in0.0 mm 0.00 in0.0 mm
10:40 PM 43.2°F6.2°C 36.4°F2.4°C 77% 0.3 mph S0.5 kmh S 1.3 mph2.1 kmh 30.09 in1019.0 mb 0.00 in0.0 mm 0.00 in0.0 mm 0.00 in0.0 mm
10:50 PM 43.2°F6.2°C 36.4°F2.4°C 77% Calm Calm 1.1 mph1.8 kmh 30.10 in1019.3 mb 0.00 in0.0 mm 0.00 in0.0 mm 0.00 in0.0 mm
11:00 PM 43.0°F6.1°C 36.3°F2.4°C 77% 0.1 mph SSE0.2 kmh SSE 1.1 mph1.8 kmh 30.09 in1019.0 mb 0.00 in0.0 mm 0.00 in0.0 mm 0.00 in0.0 mm
11:10 PM 43.0°F6.1°C 36.3°F2.4°C 77% Calm Calm -- 30.09 in1019.0 mb 0.00 in0.0 mm 0.00 in0.0 mm 0.00 in0.0 mm
11:20 PM 43.0°F6.1°C 36.3°F2.4°C 77% Calm Calm -- 30.10 in1019.3 mb 0.00 in0.0 mm 0.00 in0.0 mm 0.00 in0.0 mm
11:30 PM 42.8°F6.0°C 36.4°F2.4°C 78% Calm Calm -- 30.10 in1019.3 mb 0.00 in0.0 mm 0.00 in0.0 mm 0.00 in0.0 mm
11:40 PM 42.6°F5.9°C 36.2°F2.3°C 78% Calm Calm -- 30.10 in1019.3 mb 0.00 in0.0 mm 0.00 in0.0 mm 0.00 in0.0 mm
11:50 PM 42.6°F5.9°C 36.2°F2.3°C 78% Calm Calm -- 30.10 in1019.3 mb 0.00 in0.0 mm 0.00 in0.0 mm 0.00 in0.0 mm